Flight Track Log - Related Links

Times and Time Zones

All times are in EST time to prevent confusion due to time zone crossing. See the UAL1038 flight status page for this flight to view local times or setup timezone preferences in your user account.

Time Position Orientation Groundspeed Altitude Reporting Facility
EST Latitude Longitude Course Direction KTS MPH feet Rate Location/Type
Mon 08:04:51 AM 30.2331 -97.6821 352° North 183 211 1,900  Level FlightAware ADS-B
Mon 08:05:02 AM 30.2434 -97.6836 353° North 200 230 2,200 1,412 Climbing FlightAware ADS-B
Mon 08:05:08 AM 30.2495 -97.6850 349° North 209 241 2,300 667 Climbing FlightAware ADS-B
Mon 08:05:11 AM 30.2524 -97.6862 340° North 213 245 2,300 1,000 Level FlightAware ADS-B
Mon 08:05:14 AM 30.2553 -97.6878 335° Northwest 217 250 2,400 1,714 Climbing FlightAware ADS-B
Mon 08:05:18 AM 30.2589 -97.6905 327° Northwest 221 254 2,500 1,846 Climbing FlightAware ADS-B
Mon 08:05:27 AM 30.2649 -97.6978 314° West 229 264 2,800 2,308 Climbing FlightAware ADS-B
Mon 08:05:31 AM 30.2672 -97.7020 302° West 231 266 3,000 2,571 Climbing FlightAware ADS-B
Mon 08:05:34 AM 30.2686 -97.7055 295° West 232 267 3,100 2,571 Climbing FlightAware ADS-B
Mon 08:05:38 AM 30.2699 -97.7102 288° West 235 270 3,300 2,571 Climbing FlightAware ADS-B
Mon 08:05:41 AM 30.2706 -97.7141 282° West 237 273 3,400 2,571 Climbing FlightAware ADS-B
Mon 08:05:45 AM 30.2712 -97.7188 278° West 238 274 3,600 2,571 Climbing FlightAware ADS-B
Mon 08:05:55 AM 30.2721 -97.7318 275° West 244 281 4,000 1,800 Climbing FlightAware ADS-B
Mon 08:06:05 AM 30.2733 -97.7451 276° West 257 296 4,200 1,680 Climbing FlightAware ADS-B
Mon 08:06:20 AM 30.2754 -97.7667 276° West 275 316 4,700 2,444 Climbing FlightAware ADS-B
Mon 08:06:32 AM 30.2773 -97.7855 277° West 278 320 5,300 2,842 Climbing FlightAware ADS-B
Mon 08:06:39 AM 30.2786 -97.7947 279° West 279 321 5,600 3,273 Climbing FlightAware ADS-B
Mon 08:06:54 AM 30.2823 -97.8169 281° West 275 316 6,500 3,600 Climbing FlightAware ADS-B
Mon 08:07:09 AM 30.2863 -97.8390 282° West 275 316 7,400 3,556 Climbing FlightAware ADS-B
Mon 08:07:21 AM 30.2896 -97.8564 282° West 273 314 8,100 3,462 Climbing FlightAware ADS-B
Mon 08:07:35 AM 30.2930 -97.8761 281° West 272 313 8,900 2,800 Climbing FlightAware ADS-B
Mon 08:07:51 AM 30.2967 -97.8984 281° West 279 321 9,500 2,286 Climbing FlightAware ADS-B
Mon 08:08:17 AM 30.3034 -97.9386 281° West 291 335 10,500 1,821 Climbing FlightAware ADS-B
Mon 08:08:47 AM 30.3110 -97.9869 280° West 322 371 11,200 1,082 Climbing FlightAware ADS-B
Mon 08:09:18 AM 30.3199 -98.0416 281° West 355 409 11,600 1,161 Climbing FlightAware ADS-B
Mon 08:09:49 AM 30.3300 -98.1021 281° West 379 436 12,400 2,032 Climbing FlightAware ADS-B
Mon 08:10:20 AM 30.3400 -98.1637 281° West 383 441 13,700 2,459 Climbing FlightAware ADS-B
Mon 08:10:50 AM 30.3501 -98.2260 281° West 384 442 14,900 2,123 Climbing FlightAware ADS-B
Mon 08:11:25 AM 30.3615 -98.2962 281° West 394 453 16,000 2,060 Climbing FlightAware ADS-B
Mon 08:11:57 AM 30.3725 -98.3643 281° West 398 458 17,200 1,856 Climbing FlightAware ADS-B
Mon 08:13:02 AM 30.3914 -98.4828 281° West 400 460 19,000 1,606 Climbing Houston Center
Mon 08:14:04 AM 30.4131 -98.6186 281° West 414 476 20,600 1,707 Climbing Houston Center
Mon 08:15:05 AM 30.4342 -98.7525 280° West 425 489 22,500 1,770 Climbing Houston Center
Mon 08:16:06 AM 30.4558 -98.8894 280° West 428 493 24,200 1,574 Climbing Houston Center
Mon 08:17:07 AM 30.4875 -99.0258 285° West 434 499 25,700 1,902 Climbing Houston Center
Mon 08:18:09 AM 30.5233 -99.1781 285° West 428 493 28,100 1,415 Climbing Houston Center
Mon 08:19:10 AM 30.5528 -99.3089 285° West 423 487 28,600 934 Climbing Houston Center
Mon 08:20:11 AM 30.5853 -99.4461 285° West 438 504 30,000 1,561 Climbing Houston Center
Mon 08:21:13 AM 30.6161 -99.5781 285° West 429 494 31,800 976 Climbing Houston Center
Mon 08:22:14 AM 30.6444 -99.7086 284° West 421 484 32,000 49 Climbing Houston Center
Mon 08:23:16 AM 30.6753 -99.8408 285° West 424 488 31,900  Descending Houston Center
Mon 08:24:17 AM 30.7047 -99.9722 285° West 423 487 32,000 689 Climbing Houston Center
Mon 08:25:18 AM 30.7406 -100.1314 285° West 426 490 33,300 976 Climbing Houston Center
Mon 08:26:20 AM 30.7694 -100.2608 285° West 419 482 34,000 339 Climbing Houston Center
Mon 08:27:22 AM 30.7978 -100.3919 284° West 421 484 34,000  Level Houston Center
Mon 08:28:23 AM 30.8278 -100.5228 285° West 421 484 34,000  Level Houston Center
Mon 08:29:24 AM 30.8561 -100.6542 284° West 421 484 34,000  Level Houston Center
Mon 08:30:25 AM 30.8844 -100.7836 284° West 416 479 34,000 -49 Level Houston Center
Mon 08:31:27 AM 30.9139 -100.9117 285° West 413 475 33,900  Descending Houston Center
Mon 08:32:28 AM 30.9458 -101.0675 283° West 413 475 34,000 49 Climbing Houston Center
Mon 08:33:30 AM 30.9736 -101.1975 284° West 415 478 34,000  Level Houston Center
Mon 08:34:31 AM 31.0011 -101.3244 284° West 410 472 34,000  Level Houston Center
Mon 08:35:33 AM 31.0258 -101.4431 284° West 414 476 34,000  Level Houston Center
Mon 08:36:34 AM 31.0542 -101.5744 284° West 417 480 34,000  Level Houston Center
Mon 08:37:36 AM 31.0867 -101.7306 284° West 414 476 34,000  Level Houston Center
Mon 08:38:37 AM 31.1144 -101.8622 284° West 416 479 34,000  Level Houston Center
Mon 08:39:39 AM 31.1417 -101.9936 284° West 417 480 34,000 -48 Level Houston Center
Mon 08:40:41 AM 31.1692 -102.1261 284° West 418 481 33,900  Descending Houston Center
Mon 08:41:53 AM 31.2033 -102.2967 283° West 421 484 34,000 45 Climbing Albuquerque Center
Mon 08:42:54 AM 31.2294 -102.4272 283° West 417 480 34,000  Level Albuquerque Center
Mon 08:43:54 AM 31.2567 -102.5586 284° West 416 479 34,000  Level Albuquerque Center
Mon 08:44:55 AM 31.2831 -102.6917 283° West 416 479 34,000  Level Albuquerque Center
Mon 08:45:56 AM 31.3092 -102.8222 283° West 416 479 34,000  Level Albuquerque Center
Mon 08:46:56 AM 31.3361 -102.9544 283° West 417 480 34,000  Level Albuquerque Center
Mon 08:47:57 AM 31.3614 -103.0864 283° West 416 479 34,000  Level Albuquerque Center
Mon 08:48:57 AM 31.3886 -103.2211 283° West 421 484 34,000  Level Albuquerque Center
Mon 08:49:58 AM 31.4142 -103.3531 283° West 419 482 34,000  Level Albuquerque Center
Mon 08:50:59 AM 31.4408 -103.4869 283° West 421 484 34,000  Level Albuquerque Center
Mon 08:51:59 AM 31.4669 -103.6203 283° West 422 486 34,000  Level Albuquerque Center
Mon 08:53:00 AM 31.4939 -103.7533 283° West 421 484 34,000 -50 Level Albuquerque Center
Mon 08:54:00 AM 31.5183 -103.8797 283° West 417 480 33,900 -50 Descending Albuquerque Center
Mon 08:55:01 AM 31.5431 -104.0106 283° West 415 478 33,900 50 Level Albuquerque Center
Mon 08:56:01 AM 31.5675 -104.1411 282° West 413 475 34,000 50 Climbing Albuquerque Center
Mon 08:57:02 AM 31.5928 -104.2719 283° West 413 475 34,000  Level Albuquerque Center
Mon 08:58:03 AM 31.6219 -104.4292 282° West 413 475 34,000 -50 Level Albuquerque Center
Mon 08:59:03 AM 31.6464 -104.5614 282° West 416 479 33,900  Descending Albuquerque Center
Mon 09:00:04 AM 31.6731 -104.6947 283° West 420 483 34,000 50 Climbing Albuquerque Center
Mon 09:01:04 AM 31.7078 -104.8267 287° West 424 488 34,000 -50 Level Albuquerque Center
Mon 09:02:05 AM 31.7417 -104.9581 287° West 425 489 33,900  Descending Albuquerque Center
Mon 09:03:06 AM 31.7747 -105.0897 286° West 424 488 34,000 50 Climbing Albuquerque Center
Mon 09:04:06 AM 31.8086 -105.2219 287° West 424 488 34,000  Level Albuquerque Center
Mon 09:05:07 AM 31.8417 -105.3561 286° West 428 493 34,000  Level Albuquerque Center
Mon 09:06:07 AM 31.8747 -105.4881 286° West 425 489 34,000  Level Albuquerque Center
Mon 09:07:08 AM 31.9061 -105.6178 286° West 417 480 34,000  Level Albuquerque Center
Mon 09:08:09 AM 31.9397 -105.7492 287° West 418 481 34,000  Level Albuquerque Center
Mon 09:09:09 AM 31.9708 -105.8797 286° West 417 480 34,000  Level Albuquerque Center
Mon 09:10:10 AM 32.0092 -106.0331 286° West 422 486 34,000  Level Albuquerque Center
Mon 09:11:11 AM 32.0411 -106.1667 286° West 423 487 34,000  Level Albuquerque Center
Mon 09:12:11 AM 32.0739 -106.2997 286° West 424 488 34,000  Level Albuquerque Center
Mon 09:13:12 AM 32.1061 -106.4325 286° West 423 487 34,000  Level Albuquerque Center
Mon 09:14:13 AM 32.1369 -106.5678 285° West 426 490 34,000  Level Albuquerque Center
Mon 09:15:14 AM 32.1703 -106.7031 286° West 429 494 34,000  Level Albuquerque Center
Mon 09:16:15 AM 32.2025 -106.8400 286° West 431 496 34,000  Level Albuquerque Center
Mon 09:17:15 AM 32.2372 -106.9878 286° West 435 501 34,000  Level Albuquerque Center
Mon 09:18:16 AM 32.2697 -107.1228 286° West 431 496 34,000  Level Albuquerque Center
Mon 09:19:17 AM 32.2967 -107.2469 284° West 434 499 34,000  Level Albuquerque Center
Mon 09:20:18 AM 32.3272 -107.3836 285° West 433 498 34,000  Level Albuquerque Center
Mon 09:21:19 AM 32.3619 -107.5319 286° West 430 495 34,000  Level Albuquerque Center
Mon 09:22:20 AM 32.3936 -107.6706 285° West 433 498 34,000  Level Albuquerque Center
Mon 09:23:20 AM 32.4247 -107.8100 285° West 436 502 34,000  Level Albuquerque Center
Mon 09:24:21 AM 32.4597 -107.9633 285° West 438 504 34,000  Level Albuquerque Center
Mon 09:25:22 AM 32.4908 -108.1033 285° West 440 506 34,000  Level Albuquerque Center
Mon 09:26:23 AM 32.5231 -108.2431 285° West 440 506 34,000  Level Albuquerque Center
Mon 09:27:24 AM 32.5542 -108.3828 285° West 439 505 34,000  Level Albuquerque Center
Mon 09:28:25 AM 32.5847 -108.5225 285° West 438 504 34,000  Level Albuquerque Center
Mon 09:34:43 AM 32.7809 -109.4214 285° West 445 512 34,000  Level FlightAware ADS-B
Mon 09:35:19 AM 32.7990 -109.5066 284° West 446 513 34,000  Level FlightAware ADS-B
Mon 09:35:49 AM 32.8140 -109.5772 284° West 446 513 34,000  Level FlightAware ADS-B
Mon 09:36:19 AM 32.8270 -109.6387 284° West 443 510 34,000  Level FlightAware ADS-B
Mon 09:36:58 AM 32.8484 -109.7401 284° West 440 506 34,000  Level FlightAware ADS-B
Mon 09:37:35 AM 32.8661 -109.8246 284° West 440 506 34,000  Level FlightAware ADS-B
Mon 09:38:19 AM 32.8726 -109.8555 284° West 440 506 34,000  Level FlightAware ADS-B
Mon 09:38:49 AM 32.9024 -109.9991 284° West 440 506 34,000  Level FlightAware ADS-B
Mon 09:39:36 AM 32.9217 -110.0928 284° West 440 506 34,000  Level FlightAware ADS-B
Mon 09:40:16 AM 32.9411 -110.1792 284° West 439 505 34,000  Level Los Angeles Center
Mon 09:41:18 AM 32.9694 -110.3192 284° West 436 502 34,000  Level Los Angeles Center
Mon 09:42:19 AM 32.9981 -110.4600 284° West 437 503 34,000  Level Los Angeles Center
Mon 09:43:20 AM 33.0331 -110.6306 284° West 442 509 34,000  Level Los Angeles Center
Mon 09:44:21 AM 33.0608 -110.7728 283° West 442 509 34,000  Level Los Angeles Center
Mon 09:45:23 AM 33.0900 -110.9147 284° West 441 507 34,000  Level Los Angeles Center
Mon 09:50:16 AM 33.2259 -111.6134 284° West 433 498 34,000  Level FlightAware ADS-B
Mon 09:50:48 AM 33.2392 -111.6750 284° West 432 497 34,000  Level Albuquerque Center
Mon 09:51:49 AM 33.2658 -111.8153 283° West 432 497 34,000  Level Albuquerque Center
Mon 09:52:50 AM 33.2956 -111.9528 285° West 428 493 34,000  Level Albuquerque Center
Mon 09:53:51 AM 33.3378 -112.0847 291° West 423 487 34,000  Level Albuquerque Center
Mon 09:54:52 AM 33.3781 -112.2172 290° West 424 488 34,000  Level Albuquerque Center
Mon 09:55:53 AM 33.4192 -112.3517 290° West 427 491 34,000  Level Albuquerque Center
Mon 09:56:55 AM 33.4597 -112.4858 290° West 428 493 34,000  Level Albuquerque Center
Mon 09:57:56 AM 33.5008 -112.6208 290° West 428 493 34,000  Level Albuquerque Center
Mon 09:58:57 AM 33.5417 -112.7561 290° West 429 494 34,000  Level Albuquerque Center
Mon 09:59:58 AM 33.5828 -112.8933 290° West 434 499 34,000  Level Albuquerque Center
Mon 10:00:59 AM 33.6317 -113.0572 290° West 437 503 34,000  Level Albuquerque Center
Mon 10:02:01 AM 33.6731 -113.1967 290° West 439 505 34,000  Level Albuquerque Center
Mon 10:03:02 AM 33.7142 -113.3342 290° West 438 504 34,000  Level Albuquerque Center
Mon 10:04:04 AM 33.7553 -113.4711 290° West 437 503 34,000  Level Albuquerque Center
Mon 10:05:05 AM 33.7947 -113.6089 289° West 436 502 34,000  Level Albuquerque Center
Mon 10:06:06 AM 33.8336 -113.7453 289° West 433 498 34,000  Level Albuquerque Center
Mon 10:07:07 AM 33.8664 -113.8847 286° West 433 498 34,000  Level Albuquerque Center
Mon 10:08:09 AM 33.8844 -114.0269 279° West 431 496 34,000  Level Albuquerque Center
Mon 10:09:10 AM 33.9058 -114.1686 280° West 432 497 34,000  Level Albuquerque Center
Mon 10:10:12 AM 33.9264 -114.3339 279° West 430 495 34,000  Level Albuquerque Center
Mon 10:11:13 AM 33.9461 -114.4744 280° West 429 494 34,000  Level Albuquerque Center
Mon 10:12:29 AM 33.9683 -114.6372 279° West 428 493 34,000 -43 Level Los Angeles Center
Mon 10:13:31 AM 33.9906 -114.8067 279° West 428 493 33,900 -370 Descending Los Angeles Center
Mon 10:17:53 AM 34.0703 -115.4320 279° West 428 493 32,000 -378 Descending FlightAware ADS-B
Mon 10:19:52 AM 34.1051 -115.7120 279° West 429 494 31,500 -452 Descending FlightAware ADS-B
Mon 10:21:52 AM 34.0793 -115.9934 264° West 420 483 30,200 -704 Descending FlightAware ADS-B
Mon 10:22:34 AM 34.0659 -116.0829 260° West 414 476 29,600 -951 Descending FlightAware ADS-B
Mon 10:23:14 AM 34.0516 -116.1784 260° West 409 471 28,900 -1,114 Descending FlightAware ADS-B
Mon 10:23:44 AM 34.0419 -116.2427 260° West 406 467 28,300 -1,100 Descending FlightAware ADS-B
Mon 10:24:14 AM 34.0324 -116.3057 260° West 405 466 27,800 -1,000 Descending FlightAware ADS-B
Mon 10:24:44 AM 34.0223 -116.3719 260° West 400 460 27,300 -1,000 Descending FlightAware ADS-B
Mon 10:25:14 AM 34.0120 -116.4396 260° West 394 453 26,800 -984 Descending FlightAware ADS-B
Mon 10:25:45 AM 34.0035 -116.5099 262° West 390 449 26,300 -1,545 Descending FlightAware ADS-B
Mon 10:26:55 AM 33.9918 -116.6543 264° West 373 429 24,200 -1,872 Descending FlightAware ADS-B
Mon 10:27:34 AM 33.9853 -116.7358 265° West 363 418 22,900 -1,826 Descending FlightAware ADS-B
Mon 10:27:41 AM 33.9846 -116.7438 264° West 362 417 22,800 -1,500 Descending FlightAware ADS-B
Mon 10:27:50 AM 33.9828 -116.7672 265° West 360 414 22,500 -2,093 Descending FlightAware ADS-B
Mon 10:28:24 AM 33.9773 -116.8336 264° West 354 407 21,300 -1,875 Descending FlightAware ADS-B
Mon 10:28:54 AM 33.9726 -116.8925 264° West 348 400 20,500 -1,770 Descending FlightAware ADS-B
Mon 10:29:25 AM 33.9678 -116.9500 264° West 343 395 19,500 -1,800 Descending FlightAware ADS-B
Mon 10:30:04 AM 33.9614 -117.0246 264° West 342 394 18,400 -1,899 Descending FlightAware ADS-B
Mon 10:30:44 AM 33.9551 -117.1013 264° West 349 402 17,000 -1,185 Descending FlightAware ADS-B
Mon 10:31:25 AM 33.9484 -117.1820 264° West 346 398 16,800 -845 Descending FlightAware ADS-B
Mon 10:31:55 AM 33.9438 -117.2359 264° West 339 390 16,000 -1,521 Descending FlightAware ADS-B
Mon 10:32:36 AM 33.9371 -117.3133 264° West 332 382 15,000 -1,478 Descending FlightAware ADS-B
Mon 10:33:04 AM 33.9341 -117.3587 265° West 332 382 14,300 -1,941 Descending FlightAware ADS-B
Mon 10:33:10 AM 33.9354 -117.3755 275° West 332 382 13,900 -2,000 Descending FlightAware ADS-B
Mon 10:33:22 AM 33.9390 -117.3932 284° West 331 381 13,700 -1,647 Descending FlightAware ADS-B
Mon 10:34:01 AM 33.9634 -117.4630 293° West 332 382 12,500 -1,823 Descending FlightAware ADS-B
Mon 10:34:41 AM 33.9850 -117.5238 293° West 329 379 11,300 -1,800 Descending FlightAware ADS-B
Mon 10:35:11 AM 34.0053 -117.5811 293° West 327 376 10,400 -1,180 Descending FlightAware ADS-B
Mon 10:35:42 AM 34.0119 -117.6276 280° West 303 349 10,100 -625 Descending FlightAware ADS-B
Mon 10:35:59 AM 34.0092 -117.6575 264° West 289 333 9,900 -588 Descending FlightAware ADS-B
Mon 10:36:33 AM 34.0042 -117.7092 263° West 276 318 9,600 -692 Descending FlightAware ADS-B
Mon 10:36:51 AM 34.0014 -117.7394 264° West 275 316 9,300 -1,200 Descending FlightAware ADS-B
Mon 10:37:13 AM 33.9979 -117.7752 263° West 279 321 8,800 -1,227 Descending FlightAware ADS-B
Mon 10:37:35 AM 33.9949 -117.8077 264° West 279 321 8,400 -1,245 Descending FlightAware ADS-B
Mon 10:38:06 AM 33.9899 -117.8546 263° West 273 314 7,700 -1,250 Descending FlightAware ADS-B
Mon 10:38:23 AM 33.9875 -117.8790 263° West 272 313 7,400 -1,091 Descending FlightAware ADS-B
Mon 10:39:01 AM 33.9823 -117.9359 264° West 280 322 6,700 -1,049 Descending FlightAware ADS-B
Mon 10:40:06 AM 33.9667 -118.0333 264° West 278 320 5,600 -1,104 Descending Southern California TRACON
Mon 10:41:06 AM 33.9667 -118.1333 270° West 272 313 4,400 -1,150 Descending Southern California TRACON
Mon 10:42:06 AM 33.9500 -118.2167 256° West 258 297 3,300 -1,350 Descending Southern California TRACON
Mon 10:43:06 AM 33.9500 -118.3000 270° West 228 262 1,700 -1,300 Descending Southern California TRACON
Mon 10:44:06 AM 33.9333 -118.3500 248° West 165 190 700 -667 Descending Southern California TRACON
Mon 10:45:30 AM 33.9336 -118.4206 270° West 180 207 100 -429 Descending Los Angeles Center

Login

Don't have an account? Register now (free) for customized features, flight alerts, and more!